createdAt,value
2022-12-01T00:00:44.382Z,2.92
2022-12-01T00:01:44.591Z,2.90
2022-12-01T00:02:44.514Z,2.89
2022-12-01T00:03:44.362Z,2.89
2022-12-01T00:04:44.337Z,2.89
2022-12-01T00:05:44.341Z,2.92
2022-12-01T00:06:44.315Z,2.87
2022-12-01T00:07:44.385Z,2.89
2022-12-01T00:08:44.293Z,2.89
2022-12-01T00:09:44.303Z,2.93
2022-12-01T00:10:44.278Z,2.92
2022-12-01T00:11:44.301Z,2.95
2022-12-01T00:12:44.266Z,2.92
2022-12-01T00:13:44.257Z,2.92
2022-12-01T00:14:44.234Z,2.90
2022-12-01T00:15:44.236Z,2.90
2022-12-01T00:16:44.277Z,2.92
2022-12-01T00:17:44.230Z,2.93
2022-12-01T00:18:44.204Z,2.92
2022-12-01T00:19:44.194Z,2.92
2022-12-01T00:20:44.167Z,2.92
2022-12-01T00:21:44.189Z,2.90
2022-12-01T00:22:44.151Z,2.89
2022-12-01T00:23:44.172Z,2.89
2022-12-01T00:24:44.126Z,2.90
2022-12-01T00:25:44.145Z,2.89
2022-12-01T00:26:44.104Z,2.87
2022-12-01T00:27:44.136Z,2.87
2022-12-01T00:28:44.093Z,2.89
2022-12-01T00:29:44.104Z,2.92
2022-12-01T00:30:44.060Z,2.92
2022-12-01T00:31:44.177Z,2.95
2022-12-01T00:32:44.042Z,2.93
2022-12-01T00:33:44.082Z,2.95
2022-12-01T00:34:44.021Z,2.93
2022-12-01T00:35:44.039Z,2.93
2022-12-01T00:36:43.998Z,2.95
2022-12-01T00:37:44.024Z,2.95
2022-12-01T00:38:43.982Z,2.99
2022-12-01T00:39:43.994Z,2.99
2022-12-01T00:40:43.959Z,3.03
2022-12-01T00:41:43.974Z,3.05
2022-12-01T00:42:43.935Z,3.05
2022-12-01T00:43:43.944Z,3.03
2022-12-01T00:44:43.912Z,3.03
2022-12-01T00:45:43.974Z,3.02
2022-12-01T00:46:43.893Z,3.03
2022-12-01T00:47:43.897Z,3.03
2022-12-01T00:48:43.882Z,3.00
2022-12-01T00:49:43.874Z,2.99
2022-12-01T00:50:43.860Z,2.99
2022-12-01T00:51:43.871Z,2.97
2022-12-01T00:52:43.828Z,2.97
2022-12-01T00:53:43.856Z,2.99
2022-12-01T00:54:43.807Z,2.96
2022-12-01T00:55:43.813Z,2.97
2022-12-01T00:56:43.784Z,2.97
2022-12-01T00:57:43.814Z,2.99
2022-12-01T00:58:43.768Z,2.99
2022-12-01T00:59:43.786Z,2.97
2022-12-01T01:00:43.751Z,2.97
2022-12-01T01:01:43.848Z,2.99
2022-12-01T01:02:43.785Z,2.97
2022-12-01T01:03:43.748Z,2.96
2022-12-01T01:04:43.704Z,2.99
2022-12-01T01:05:43.724Z,2.99
2022-12-01T01:06:43.684Z,2.97
2022-12-01T01:07:43.739Z,2.96
2022-12-01T01:08:43.661Z,2.96
2022-12-01T01:09:43.666Z,2.97
2022-12-01T01:10:43.647Z,2.97
2022-12-01T01:11:43.647Z,2.99
2022-12-01T01:12:43.622Z,2.97
2022-12-01T01:13:43.635Z,2.95
2022-12-01T01:14:43.603Z,2.95
2022-12-01T01:15:43.617Z,2.92
2022-12-01T01:16:43.688Z,2.89
2022-12-01T01:17:43.607Z,2.92
2022-12-01T01:18:43.560Z,2.95
2022-12-01T01:19:43.587Z,2.96
2022-12-01T01:20:43.537Z,2.97
2022-12-01T01:21:43.555Z,2.99
2022-12-01T01:22:43.521Z,3.00
2022-12-01T01:23:43.531Z,3.02
2022-12-01T01:24:43.492Z,3.02
2022-12-01T01:25:43.506Z,3.00
2022-12-01T01:26:43.479Z,3.02
2022-12-01T01:27:43.495Z,3.03
2022-12-01T01:28:43.451Z,3.05
2022-12-01T01:29:43.465Z,3.06
2022-12-01T01:30:43.461Z,3.10
2022-12-01T01:31:43.434Z,3.11
2022-12-01T01:32:43.406Z,3.11
2022-12-01T01:33:43.424Z,3.11
2022-12-01T01:34:43.407Z,3.13
2022-12-01T01:35:43.389Z,3.08
2022-12-01T01:36:43.366Z,3.06
2022-12-01T01:37:43.383Z,3.03
2022-12-01T01:38:43.343Z,3.02
2022-12-01T01:39:43.348Z,3.00
2022-12-01T01:40:43.331Z,3.00
2022-12-01T01:41:43.334Z,3.05
2022-12-01T01:42:43.304Z,3.03
2022-12-01T01:43:43.320Z,3.00
2022-12-01T01:44:43.279Z,3.02
2022-12-01T01:45:43.326Z,3.02
2022-12-01T01:46:43.259Z,3.02
2022-12-01T01:47:43.276Z,3.03
2022-12-01T01:48:43.236Z,3.02
2022-12-01T01:49:43.245Z,3.00
2022-12-01T01:50:43.229Z,2.99
2022-12-01T01:51:43.220Z,3.00
2022-12-01T01:52:43.197Z,3.03
2022-12-01T01:53:43.199Z,3.02
2022-12-01T01:54:43.173Z,3.02
2022-12-01T01:55:43.184Z,3.02
2022-12-01T01:56:43.158Z,3.05
2022-12-01T01:57:43.156Z,3.06
2022-12-01T01:58:43.132Z,3.10
2022-12-01T01:59:43.148Z,3.08
2022-12-01T02:00:43.109Z,3.08
2022-12-01T02:01:43.221Z,3.06
2022-12-01T02:02:43.123Z,3.05
2022-12-01T02:03:48.218Z,3.06
2022-12-01T02:04:43.063Z,3.05
2022-12-01T02:05:43.075Z,3.03
2022-12-01T02:06:43.044Z,3.03
2022-12-01T02:07:43.084Z,3.02
2022-12-01T02:08:43.032Z,3.02
2022-12-01T02:09:43.038Z,2.97
2022-12-01T02:10:43.005Z,2.97
2022-12-01T02:11:43.018Z,3.00
2022-12-01T02:12:43.001Z,3.00
2022-12-01T02:13:42.998Z,3.03
2022-12-01T02:14:42.965Z,3.02
2022-12-01T02:15:42.981Z,3.05
2022-12-01T02:16:43.012Z,3.06
2022-12-01T02:17:42.956Z,3.10
2022-12-01T02:18:43.425Z,3.11
2022-12-01T02:19:42.933Z,3.14
2022-12-01T02:20:42.893Z,3.17
2022-12-01T02:21:42.905Z,3.18
2022-12-01T02:22:42.875Z,3.17
2022-12-01T02:23:42.908Z,3.18
2022-12-01T02:24:42.854Z,3.15
2022-12-01T02:25:42.870Z,3.15
2022-12-01T02:26:42.832Z,3.14
2022-12-01T02:27:42.821Z,3.18
2022-12-01T02:28:42.830Z,3.20
2022-12-01T02:29:42.807Z,3.23
2022-12-01T02:30:42.867Z,3.23
2022-12-01T02:31:42.777Z,3.23
2022-12-01T02:32:42.780Z,3.24
2022-12-01T02:33:42.757Z,3.23
2022-12-01T02:34:42.786Z,3.23
2022-12-01T02:35:42.739Z,3.23
2022-12-01T02:36:42.755Z,3.23
2022-12-01T02:37:42.715Z,3.23
2022-12-01T02:38:42.721Z,3.24
2022-12-01T02:39:42.695Z,3.24
2022-12-01T02:40:42.713Z,3.28
2022-12-01T02:41:42.683Z,3.24
2022-12-01T02:42:42.679Z,3.26
2022-12-01T02:43:42.655Z,3.24
2022-12-01T02:44:42.662Z,3.24
2022-12-01T02:45:42.662Z,3.29
2022-12-01T02:46:42.667Z,3.29
2022-12-01T02:47:42.614Z,3.29
2022-12-01T02:48:42.622Z,3.28
2022-12-01T02:49:42.591Z,3.28
2022-12-01T02:50:42.609Z,3.28
2022-12-01T02:51:42.573Z,3.24
2022-12-01T02:52:42.591Z,3.24
2022-12-01T02:53:42.546Z,3.24
2022-12-01T02:54:42.556Z,3.23
2022-12-01T02:55:42.526Z,3.20
2022-12-01T02:56:42.531Z,3.20
2022-12-01T02:57:42.503Z,3.20
2022-12-01T02:58:42.518Z,3.17
2022-12-01T02:59:42.479Z,3.15
2022-12-01T03:00:42.501Z,3.15
2022-12-01T03:01:42.599Z,3.15
2022-12-01T03:02:42.582Z,3.15
2022-12-01T03:03:42.449Z,3.20
2022-12-01T03:04:42.462Z,3.21
2022-12-01T03:05:42.426Z,3.23
2022-12-01T03:06:42.438Z,3.23
2022-12-01T03:07:42.452Z,3.21
2022-12-01T03:08:42.413Z,3.20
2022-12-01T03:09:42.376Z,3.20
2022-12-01T03:10:42.383Z,3.17
2022-12-01T03:11:42.357Z,3.15
2022-12-01T03:12:42.358Z,3.15
2022-12-01T03:13:42.342Z,3.18
2022-12-01T03:14:42.351Z,3.18
2022-12-01T03:15:42.391Z,3.20
2022-12-01T03:16:42.319Z,3.24
2022-12-01T03:17:42.291Z,3.26
2022-12-01T03:18:42.320Z,3.28
2022-12-01T03:19:42.270Z,3.26
2022-12-01T03:20:42.274Z,3.28
2022-12-01T03:21:42.247Z,3.28
2022-12-01T03:22:42.266Z,3.24
2022-12-01T03:23:42.244Z,3.23
2022-12-01T03:24:42.231Z,3.23
2022-12-01T03:25:42.206Z,3.21
2022-12-01T03:26:42.209Z,3.23
2022-12-01T03:28:00.542Z,3.23
2022-12-01T03:28:42.211Z,3.24
2022-12-01T03:29:42.177Z,3.28
2022-12-01T03:30:42.184Z,3.31
2022-12-01T03:31:42.207Z,3.32
2022-12-01T03:32:42.161Z,3.32
2022-12-01T03:33:42.124Z,3.33
2022-12-01T03:34:42.138Z,3.32
2022-12-01T03:35:42.108Z,3.32
2022-12-01T03:36:42.112Z,3.33
2022-12-01T03:37:42.079Z,3.33
2022-12-01T03:38:42.097Z,3.35
2022-12-01T03:39:42.067Z,3.36
2022-12-01T03:40:42.077Z,3.40
2022-12-01T03:41:42.044Z,3.40
2022-12-01T03:42:42.043Z,3.40
2022-12-01T03:43:42.016Z,3.40
2022-12-01T03:44:42.019Z,3.39
2022-12-01T03:45:41.996Z,3.40
2022-12-01T03:46:42.068Z,3.40
2022-12-01T03:47:41.976Z,3.40
2022-12-01T03:48:41.992Z,3.42
2022-12-01T03:49:41.953Z,3.39
2022-12-01T03:50:41.975Z,3.39
2022-12-01T03:51:41.932Z,3.36
2022-12-01T03:52:41.947Z,3.35
2022-12-01T03:53:41.907Z,3.33
2022-12-01T03:54:41.927Z,3.33
2022-12-01T03:55:41.889Z,3.33
2022-12-01T03:56:41.915Z,3.35
2022-12-01T03:57:41.863Z,3.40
2022-12-01T03:58:41.872Z,3.42
2022-12-01T03:59:41.849Z,3.45
2022-12-01T04:00:41.849Z,3.47
2022-12-01T04:01:41.866Z,3.50
2022-12-01T04:02:41.888Z,3.51
2022-12-01T04:03:41.806Z,3.48
2022-12-01T04:04:41.823Z,3.52
2022-12-01T04:05:41.792Z,3.52
2022-12-01T04:06:41.803Z,3.52
2022-12-01T04:07:41.789Z,3.50
2022-12-01T04:08:41.778Z,3.52
2022-12-01T04:09:41.740Z,3.51
2022-12-01T04:10:41.757Z,3.48
2022-12-01T04:11:41.740Z,3.43
2022-12-01T04:12:41.724Z,3.39
2022-12-01T04:13:41.695Z,3.35
2022-12-01T04:14:41.715Z,3.33
2022-12-01T04:15:41.713Z,3.29
2022-12-01T04:16:41.697Z,3.31
2022-12-01T04:17:41.670Z,3.29
2022-12-01T04:18:41.677Z,3.28
2022-12-01T04:19:41.638Z,3.28
2022-12-01T04:20:41.638Z,3.28
2022-12-01T04:21:41.616Z,3.29
2022-12-01T04:22:41.631Z,3.31
2022-12-01T04:23:41.602Z,3.35
2022-12-01T04:24:41.638Z,3.32
2022-12-01T04:25:41.580Z,3.33
2022-12-01T04:26:41.577Z,3.33
2022-12-01T04:27:41.566Z,3.35
2022-12-01T04:28:41.568Z,3.35
2022-12-01T04:29:41.529Z,3.36
2022-12-01T04:30:41.549Z,3.35
2022-12-01T04:31:41.576Z,3.36
2022-12-01T04:32:41.514Z,3.42
2022-12-01T04:33:41.488Z,3.47
2022-12-01T04:34:41.504Z,3.47
2022-12-01T04:35:41.468Z,3.51
2022-12-01T04:36:41.491Z,3.51
2022-12-01T04:37:41.451Z,3.51
2022-12-01T04:38:41.452Z,3.51
2022-12-01T04:39:41.425Z,3.51
2022-12-01T04:40:41.445Z,3.54
2022-12-01T04:41:41.409Z,3.55
2022-12-01T04:42:41.436Z,3.54
2022-12-01T04:43:41.388Z,3.54
2022-12-01T04:44:41.406Z,3.51
2022-12-01T04:45:41.363Z,3.45
2022-12-01T04:46:41.582Z,3.43
2022-12-01T04:47:41.352Z,3.42
2022-12-01T04:48:41.361Z,3.45
2022-12-01T04:49:41.327Z,3.45
2022-12-01T04:50:41.344Z,3.51
2022-12-01T04:51:41.306Z,3.54
2022-12-01T04:52:41.329Z,3.55
2022-12-01T04:53:41.288Z,3.55
2022-12-01T04:54:41.305Z,3.58
2022-12-01T04:55:41.260Z,3.60
2022-12-01T04:56:41.266Z,3.61
2022-12-01T04:57:41.241Z,3.61
2022-12-01T04:58:41.258Z,3.61
2022-12-01T04:59:41.224Z,3.62
2022-12-01T05:00:41.299Z,3.62
2022-12-01T05:01:41.314Z,3.62
2022-12-01T05:02:41.201Z,3.65
2022-12-01T05:03:41.178Z,3.65
2022-12-01T05:04:41.204Z,3.61
2022-12-01T05:05:41.168Z,3.60
2022-12-01T05:06:41.189Z,3.55
2022-12-01T05:07:41.180Z,3.52
2022-12-01T05:08:41.159Z,3.50
2022-12-01T05:09:41.123Z,3.50
2022-12-01T05:10:41.133Z,3.48
2022-12-01T05:11:41.102Z,3.47
2022-12-01T05:12:41.117Z,3.43
2022-12-01T05:13:41.093Z,3.42
2022-12-01T05:14:41.100Z,3.42
2022-12-01T05:15:41.067Z,3.39
2022-12-01T05:16:41.091Z,3.36
2022-12-01T05:17:41.060Z,3.35
2022-12-01T05:18:41.186Z,3.35
2022-12-01T05:19:41.013Z,3.32
2022-12-01T05:20:41.017Z,3.32
2022-12-01T05:21:41.001Z,3.35
2022-12-01T05:23:04.274Z,3.35
2022-12-01T05:23:41.001Z,3.35
2022-12-01T05:24:40.996Z,3.36
2022-12-01T05:25:40.954Z,3.42
2022-12-01T05:26:40.955Z,3.40
2022-12-01T05:27:40.938Z,3.45
2022-12-01T05:28:40.970Z,3.48
2022-12-01T05:29:40.908Z,3.50
2022-12-01T05:30:40.938Z,3.45
2022-12-01T05:31:40.986Z,3.45
2022-12-01T05:32:40.907Z,3.47
2022-12-01T05:33:40.865Z,3.47
2022-12-01T05:34:40.892Z,3.51
2022-12-01T05:35:40.859Z,3.51
2022-12-01T05:36:40.874Z,3.47
2022-12-01T05:37:40.850Z,3.47
2022-12-01T05:38:40.870Z,3.47
2022-12-01T05:39:40.817Z,3.47
2022-12-01T05:40:40.825Z,3.40
2022-12-01T05:41:40.804Z,3.36
2022-12-01T05:42:40.792Z,3.33
2022-12-01T05:43:40.782Z,3.31
2022-12-01T05:44:40.785Z,3.31
2022-12-01T05:45:40.806Z,3.29
2022-12-01T05:46:40.756Z,3.29
2022-12-01T05:47:40.726Z,3.26
2022-12-01T05:48:40.726Z,3.26
2022-12-01T05:49:40.985Z,3.24
2022-12-01T05:50:40.708Z,3.26
2022-12-01T05:51:40.682Z,3.24
2022-12-01T05:52:40.707Z,3.24
2022-12-01T05:53:40.682Z,3.28
2022-12-01T05:54:40.664Z,3.28
2022-12-01T05:55:40.642Z,3.29
2022-12-01T05:56:40.645Z,3.29
2022-12-01T05:57:40.622Z,3.29
2022-12-01T05:58:40.643Z,3.31
2022-12-01T05:59:40.610Z,3.29
2022-12-01T06:00:45.714Z,3.32
2022-12-01T06:01:40.652Z,3.31
2022-12-01T06:02:40.631Z,3.33
2022-12-01T06:03:40.560Z,3.35
2022-12-01T06:04:40.565Z,3.35
2022-12-01T06:05:40.537Z,3.39
2022-12-01T06:06:40.558Z,3.40
2022-12-01T06:07:40.739Z,3.45
2022-12-01T06:08:40.543Z,3.47
2022-12-01T06:09:40.498Z,3.48
2022-12-01T06:10:40.513Z,3.48
2022-12-01T06:11:40.483Z,3.51
2022-12-01T06:12:40.498Z,3.50
2022-12-01T06:13:40.455Z,3.47
2022-12-01T06:14:40.474Z,3.43
2022-12-01T06:15:40.437Z,3.42
2022-12-01T06:16:40.495Z,3.36
2022-12-01T06:17:40.732Z,3.36
2022-12-01T06:18:40.423Z,3.35
2022-12-01T06:19:40.394Z,3.32
2022-12-01T06:20:40.405Z,3.28
2022-12-01T06:21:40.386Z,3.31
2022-12-01T06:22:40.360Z,3.32
2022-12-01T06:23:40.353Z,3.33
2022-12-01T06:24:40.317Z,3.36
2022-12-01T06:25:40.276Z,3.40
2022-12-01T06:26:40.291Z,3.35
2022-12-01T06:27:40.321Z,3.31
2022-12-01T06:28:40.340Z,3.26
2022-12-01T06:29:47.831Z,3.26
2022-12-01T06:30:40.258Z,3.26
2022-12-01T06:31:40.312Z,3.28
2022-12-01T06:32:40.299Z,3.26
2022-12-01T06:33:40.251Z,3.28
2022-12-01T06:34:40.260Z,3.26
2022-12-01T06:35:40.188Z,3.28
2022-12-01T06:36:40.194Z,3.28
2022-12-01T06:37:40.160Z,3.29
2022-12-01T06:38:40.188Z,3.29
2022-12-01T06:39:40.135Z,3.33
2022-12-01T06:40:40.142Z,3.33
2022-12-01T06:41:40.119Z,3.33
2022-12-01T06:42:40.139Z,3.36
2022-12-01T06:43:40.121Z,3.36
2022-12-01T06:44:40.182Z,3.39
2022-12-01T06:45:40.133Z,3.42
2022-12-01T06:46:40.133Z,3.43
2022-12-01T06:47:40.082Z,3.43
2022-12-01T06:48:40.042Z,3.43
2022-12-01T06:49:40.058Z,3.40
2022-12-01T06:50:40.024Z,3.39
2022-12-01T06:51:40.027Z,3.39
2022-12-01T06:52:40.018Z,3.35
2022-12-01T06:53:40.019Z,3.33
2022-12-01T06:54:39.985Z,3.33
2022-12-01T06:55:39.987Z,3.32
2022-12-01T06:56:39.962Z,3.31
2022-12-01T06:57:39.966Z,3.29
2022-12-01T06:58:39.952Z,3.29
2022-12-01T06:59:39.977Z,3.29
2022-12-01T07:00:39.940Z,3.29
2022-12-01T07:01:40.049Z,3.28
2022-12-01T07:02:39.959Z,3.31
2022-12-01T07:03:39.906Z,3.31
2022-12-01T07:04:39.891Z,3.31
2022-12-01T07:05:39.949Z,3.33
2022-12-01T07:06:39.859Z,3.35
2022-12-01T07:07:39.941Z,3.33
2022-12-01T07:08:39.835Z,3.36
2022-12-01T07:09:39.857Z,3.39
2022-12-01T07:10:39.816Z,3.40
2022-12-01T07:11:39.849Z,3.43
2022-12-01T07:12:39.809Z,3.42
2022-12-01T07:13:39.813Z,3.43
2022-12-01T07:14:39.776Z,3.42
2022-12-01T07:15:39.797Z,3.40
2022-12-01T07:16:39.822Z,3.39
2022-12-01T07:17:39.790Z,3.39
2022-12-01T07:18:39.734Z,3.40
2022-12-01T07:19:39.754Z,3.42
2022-12-01T07:20:39.714Z,3.43
2022-12-01T07:21:39.718Z,3.47
2022-12-01T07:22:39.704Z,3.48
2022-12-01T07:23:39.702Z,3.50
2022-12-01T07:24:39.674Z,3.52
2022-12-01T07:25:39.701Z,3.55
2022-12-01T07:26:39.654Z,3.55
2022-12-01T07:27:39.678Z,3.57
2022-12-01T07:28:39.635Z,3.61
2022-12-01T07:29:39.639Z,3.62
2022-12-01T07:30:39.671Z,3.65
2022-12-01T07:31:39.617Z,3.66
2022-12-01T07:32:39.609Z,3.69
2022-12-01T07:33:39.593Z,3.73
2022-12-01T07:34:39.570Z,3.78
2022-12-01T07:35:39.575Z,3.84
2022-12-01T07:36:39.569Z,3.86
2022-12-01T07:37:39.556Z,3.87
2022-12-01T07:38:39.544Z,3.87
2022-12-01T07:39:39.556Z,3.84
2022-12-01T07:40:39.509Z,3.86
2022-12-01T07:41:39.529Z,3.87
2022-12-01T07:42:39.487Z,3.84
2022-12-01T07:43:39.507Z,3.88
2022-12-01T07:44:39.479Z,3.88
2022-12-01T07:45:39.606Z,3.90
2022-12-01T07:46:39.498Z,3.90
2022-12-01T07:47:39.450Z,3.91
2022-12-01T07:48:39.441Z,3.94
2022-12-01T07:49:39.453Z,3.94
2022-12-01T07:50:39.408Z,3.96
2022-12-01T07:51:39.412Z,3.96
2022-12-01T07:52:39.389Z,3.98
2022-12-01T07:53:39.415Z,3.98
2022-12-01T07:54:39.368Z,3.98
2022-12-01T07:55:39.401Z,3.98
2022-12-01T07:56:39.347Z,4.02
2022-12-01T07:57:39.351Z,4.02
2022-12-01T07:58:39.329Z,4.02
2022-12-01T07:59:39.344Z,4.04
2022-12-01T08:00:39.303Z,4.06
2022-12-01T08:01:44.281Z,4.08
2022-12-01T08:02:39.344Z,4.11
2022-12-01T08:03:39.289Z,4.12
2022-12-01T08:04:39.260Z,4.16
2022-12-01T08:05:39.301Z,4.18
2022-12-01T08:06:39.248Z,4.16
2022-12-01T08:07:39.320Z,4.12
2022-12-01T08:08:39.226Z,4.14
2022-12-01T08:09:39.224Z,4.15
2022-12-01T08:10:39.201Z,4.16
2022-12-01T08:11:39.226Z,4.15
2022-12-01T08:12:39.178Z,4.18
2022-12-01T08:13:39.201Z,4.20
2022-12-01T08:14:39.159Z,4.24
2022-12-01T08:15:39.242Z,4.26
2022-12-01T08:16:39.146Z,4.26
2022-12-01T08:17:39.155Z,4.29
2022-12-01T08:18:39.121Z,4.32
2022-12-01T08:19:39.121Z,4.33
2022-12-01T08:20:39.099Z,4.34
2022-12-01T08:21:39.135Z,4.32
2022-12-01T08:22:39.077Z,4.33
2022-12-01T08:23:39.091Z,4.30
2022-12-01T08:24:39.074Z,4.33
2022-12-01T08:25:39.074Z,4.33
2022-12-01T08:26:39.039Z,4.37
2022-12-01T08:27:39.050Z,4.41
2022-12-01T08:28:39.015Z,4.41
2022-12-01T08:29:39.036Z,4.40
2022-12-01T08:30:38.996Z,4.37
2022-12-01T08:31:39.051Z,4.32
2022-12-01T08:32:38.986Z,4.33
2022-12-01T08:33:38.976Z,4.40
2022-12-01T08:34:38.950Z,4.45
2022-12-01T08:35:38.968Z,4.54
2022-12-01T08:36:38.938Z,4.62
2022-12-01T08:37:38.956Z,4.69
2022-12-01T08:38:38.918Z,4.73
2022-12-01T08:39:38.915Z,4.72
2022-12-01T08:40:38.891Z,4.70
2022-12-01T08:41:38.895Z,4.70
2022-12-01T08:42:38.866Z,4.73
2022-12-01T08:43:57.170Z,4.80
2022-12-01T08:44:38.892Z,4.82
2022-12-01T08:45:38.853Z,4.82
2022-12-01T08:46:38.871Z,4.80
2022-12-01T08:47:38.829Z,4.80
2022-12-01T08:48:38.804Z,4.78
2022-12-01T08:49:38.833Z,4.85
2022-12-01T08:50:38.783Z,4.85
2022-12-01T08:51:38.790Z,4.88
2022-12-01T08:52:38.765Z,4.91
2022-12-01T08:53:44.020Z,4.84
2022-12-01T08:54:38.758Z,4.84
2022-12-01T08:55:38.750Z,4.86
2022-12-01T08:56:38.719Z,4.91
2022-12-01T08:57:38.729Z,4.92
2022-12-01T08:58:38.700Z,4.88
2022-12-01T08:59:38.719Z,4.84
2022-12-01T09:00:38.693Z,4.85
2022-12-01T09:01:38.778Z,4.84
2022-12-01T09:02:38.724Z,4.89
2022-12-01T09:03:38.678Z,4.88
2022-12-01T09:04:38.649Z,4.82
2022-12-01T09:05:38.642Z,4.73
2022-12-01T09:06:38.615Z,4.70
2022-12-01T09:07:38.719Z,4.70
2022-12-01T09:08:38.599Z,4.69
2022-12-01T09:09:38.625Z,4.69
2022-12-01T09:10:38.574Z,4.77
2022-12-01T09:11:38.587Z,4.82
2022-12-01T09:12:38.553Z,4.86
2022-12-01T09:13:38.556Z,4.94
2022-12-01T09:14:38.544Z,4.97
2022-12-01T09:15:38.555Z,5.02
2022-12-01T09:16:38.599Z,4.99
2022-12-01T09:17:38.521Z,4.97
2022-12-01T09:18:38.493Z,4.91
2022-12-01T09:19:38.504Z,4.94
2022-12-01T09:20:38.480Z,4.96
2022-12-01T09:21:38.488Z,5.02
2022-12-01T09:22:38.472Z,5.04
2022-12-01T09:23:38.455Z,5.13
2022-12-01T09:24:38.432Z,5.20
2022-12-01T09:25:38.435Z,5.21
2022-12-01T09:26:38.404Z,5.18
2022-12-01T09:27:38.430Z,5.22
2022-12-01T09:28:38.397Z,5.22
2022-12-01T09:29:38.405Z,5.30
2022-12-01T09:30:38.375Z,5.35
2022-12-01T09:31:38.424Z,5.40
2022-12-01T09:32:38.346Z,5.45
2022-12-01T09:33:38.413Z,5.53
2022-12-01T09:34:38.332Z,5.61
2022-12-01T09:35:38.327Z,5.74
2022-12-01T09:36:38.301Z,5.78
2022-12-01T09:37:38.307Z,5.86
2022-12-01T09:38:38.279Z,5.96
2022-12-01T09:39:38.310Z,6.03
2022-12-01T09:40:38.258Z,5.99
2022-12-01T09:41:38.276Z,5.86
2022-12-01T09:42:38.254Z,5.83
2022-12-01T09:43:38.254Z,5.78
2022-12-01T09:44:38.220Z,5.74
2022-12-01T09:45:38.235Z,5.64
2022-12-01T09:46:38.258Z,5.64
2022-12-01T09:47:38.212Z,5.64
2022-12-01T09:48:38.232Z,5.71
2022-12-01T09:49:38.198Z,5.71
2022-12-01T09:50:38.155Z,5.72
2022-12-01T09:51:38.277Z,5.76
2022-12-01T09:52:38.142Z,5.74
2022-12-01T09:53:38.140Z,5.74
2022-12-01T09:54:38.112Z,5.82
2022-12-01T09:55:38.151Z,5.91
2022-12-01T09:56:38.092Z,6.04
2022-12-01T09:57:38.096Z,6.04
2022-12-01T09:58:38.071Z,6.06
2022-12-01T09:59:38.091Z,6.04
2022-12-01T10:00:38.106Z,6.09
2022-12-01T10:01:38.131Z,6.21
2022-12-01T10:02:38.132Z,6.34
2022-12-01T10:03:38.036Z,6.44
2022-12-01T10:04:38.016Z,6.55
2022-12-01T10:05:51.282Z,6.61
2022-12-01T10:06:38.294Z,6.62
2022-12-01T10:07:38.080Z,6.59
2022-12-01T10:08:37.963Z,6.66
2022-12-01T10:09:37.992Z,6.64
2022-12-01T10:10:37.951Z,6.70
2022-12-01T10:11:37.963Z,6.70
2022-12-01T10:12:37.926Z,6.73
2022-12-01T10:13:37.950Z,6.71
2022-12-01T10:14:37.926Z,6.69
2022-12-01T10:15:37.923Z,6.62
2022-12-01T10:16:37.920Z,6.64
2022-12-01T10:17:37.900Z,6.64
2022-12-01T10:18:37.857Z,6.69
2022-12-01T10:19:37.916Z,6.84
2022-12-01T10:20:37.841Z,6.97
2022-12-01T10:21:37.858Z,7.12
2022-12-01T10:22:37.817Z,7.21
2022-12-01T10:23:37.825Z,7.06
2022-12-01T10:24:37.817Z,6.81
2022-12-01T10:25:37.804Z,6.64
2022-12-01T10:26:37.778Z,6.66
2022-12-01T10:27:37.781Z,6.73
2022-12-01T10:28:37.765Z,6.77
2022-12-01T10:29:37.773Z,6.87
2022-12-01T10:30:37.745Z,6.81
2022-12-01T10:31:37.804Z,6.80
2022-12-01T10:32:37.718Z,6.71
2022-12-01T10:33:37.718Z,6.55
2022-12-01T10:34:37.693Z,6.61
2022-12-01T10:35:37.700Z,6.61
2022-12-01T10:36:37.677Z,6.58
2022-12-01T10:37:37.722Z,6.58
2022-12-01T10:38:37.651Z,6.56
2022-12-01T10:39:37.653Z,6.61
2022-12-01T10:40:37.649Z,6.64
2022-12-01T10:41:37.635Z,6.77
2022-12-01T10:42:37.612Z,6.91
2022-12-01T10:43:37.629Z,6.99
2022-12-01T10:44:37.587Z,7.05
2022-12-01T10:45:37.665Z,7.05
2022-12-01T10:46:37.578Z,6.98
2022-12-01T10:47:37.582Z,7.09
2022-12-01T10:48:37.546Z,7.09
2022-12-01T10:49:37.547Z,7.12
2022-12-01T10:50:37.523Z,7.17
2022-12-01T10:51:37.539Z,7.16
2022-12-01T10:52:37.513Z,7.07
2022-12-01T10:53:37.522Z,7.10
2022-12-01T10:54:37.479Z,7.13
2022-12-01T10:55:37.497Z,7.12
2022-12-01T10:56:37.459Z,7.06
2022-12-01T10:57:37.488Z,7.09
2022-12-01T10:58:37.442Z,7.06
2022-12-01T10:59:37.439Z,7.09
2022-12-01T11:01:06.255Z,7.05
2022-12-01T11:01:37.555Z,7.02
2022-12-01T11:02:37.642Z,7.05
2022-12-01T11:03:37.647Z,7.03
2022-12-01T11:04:37.404Z,7.05
2022-12-01T11:05:37.362Z,7.07
2022-12-01T11:06:37.380Z,7.17
2022-12-01T11:07:37.391Z,7.25
2022-12-01T11:08:37.356Z,7.24
2022-12-01T11:09:37.319Z,7.27
2022-12-01T11:10:37.340Z,7.28
2022-12-01T11:11:37.303Z,7.43
2022-12-01T11:12:37.320Z,7.64
2022-12-01T11:13:37.289Z,7.82
2022-12-01T11:14:37.291Z,7.98
2022-12-01T11:15:37.260Z,8.18
2022-12-01T11:16:37.302Z,8.25
2022-12-01T11:17:37.244Z,8.28
2022-12-01T11:18:37.287Z,8.26
2022-12-01T11:19:37.295Z,8.29
2022-12-01T11:20:37.358Z,8.30
2022-12-01T11:21:37.208Z,8.26
2022-12-01T11:22:37.213Z,8.15
2022-12-01T11:23:37.315Z,8.12
2022-12-01T11:24:37.187Z,8.02
2022-12-01T11:25:37.157Z,7.98
2022-12-01T11:26:37.169Z,8.00
2022-12-01T11:27:37.131Z,8.01
2022-12-01T11:28:37.152Z,7.95
2022-12-01T11:29:37.119Z,7.90
2022-12-01T11:30:37.138Z,8.00
2022-12-01T11:31:37.150Z,8.10
2022-12-01T11:32:37.119Z,8.10
2022-12-01T11:33:37.072Z,8.23
2022-12-01T11:34:37.091Z,8.37
2022-12-01T11:35:37.071Z,8.37
2022-12-01T11:36:37.058Z,8.29
2022-12-01T11:37:37.031Z,8.20
2022-12-01T11:38:37.030Z,8.19
2022-12-01T11:39:37.008Z,8.23
2022-12-01T11:40:37.018Z,8.26
2022-12-01T11:41:36.994Z,8.30
2022-12-01T11:42:37.002Z,8.36
2022-12-01T11:43:36.970Z,8.34
2022-12-01T11:44:51.406Z,8.33
2022-12-01T11:45:36.994Z,8.41
2022-12-01T11:46:37.049Z,8.50
2022-12-01T11:47:36.936Z,8.58
2022-12-01T11:48:36.943Z,8.68
2022-12-01T11:49:36.901Z,8.62
2022-12-01T11:50:36.920Z,8.59
2022-12-01T11:51:36.879Z,8.65
2022-12-01T11:52:36.961Z,8.59
2022-12-01T11:53:36.874Z,8.43
2022-12-01T11:54:36.895Z,8.44
2022-12-01T11:55:36.838Z,8.47
2022-12-01T11:56:36.839Z,8.50
2022-12-01T11:57:36.814Z,8.52
2022-12-01T11:58:36.923Z,8.66
2022-12-01T11:59:36.793Z,8.76
2022-12-01T12:00:36.810Z,8.68
2022-12-01T12:01:36.784Z,8.66
2022-12-01T12:02:36.807Z,8.71
2022-12-01T12:03:36.786Z,8.65
2022-12-01T12:04:36.782Z,8.65
2022-12-01T12:05:36.733Z,8.61
2022-12-01T12:06:40.659Z,8.65
2022-12-01T12:07:36.744Z,8.70
2022-12-01T12:08:36.756Z,8.68
2022-12-01T12:09:41.745Z,8.73
2022-12-01T12:10:36.755Z,8.79
2022-12-01T12:11:36.670Z,8.81
2022-12-01T12:12:36.669Z,8.91
2022-12-01T12:13:36.647Z,8.92
2022-12-01T12:14:36.663Z,8.95
2022-12-01T12:15:36.635Z,8.95
2022-12-01T12:16:36.630Z,8.84
2022-12-01T12:17:36.651Z,8.89
2022-12-01T12:18:36.623Z,8.92
2022-12-01T12:20:00.024Z,8.98
2022-12-01T12:20:36.616Z,9.28
2022-12-01T12:21:36.560Z,9.68
2022-12-01T12:22:36.563Z,9.81
2022-12-01T12:23:36.541Z,9.78
2022-12-01T12:24:36.577Z,9.71
2022-12-01T12:25:36.516Z,9.75
2022-12-01T12:26:36.544Z,9.79
2022-12-01T12:27:36.494Z,9.89
2022-12-01T12:28:36.523Z,9.87
2022-12-01T12:29:36.474Z,9.81
2022-12-01T12:30:36.519Z,9.86
2022-12-01T12:31:36.465Z,9.90
2022-12-01T12:32:36.459Z,9.91
2022-12-01T12:33:36.435Z,9.75
2022-12-01T12:34:36.456Z,9.68
2022-12-01T12:35:36.413Z,9.78
2022-12-01T12:36:36.441Z,9.78
2022-12-01T12:37:36.389Z,9.89
2022-12-01T12:38:36.397Z,9.69
2022-12-01T12:39:36.367Z,9.75
2022-12-01T12:40:36.372Z,9.84
2022-12-01T12:41:36.359Z,10.07
2022-12-01T12:42:36.376Z,10.05
2022-12-01T12:43:36.336Z,10.01
2022-12-01T12:44:37.625Z,9.84
2022-12-01T12:45:36.303Z,9.65
2022-12-01T12:46:36.405Z,9.72
2022-12-01T12:47:36.288Z,9.71
2022-12-01T12:48:50.870Z,9.75
2022-12-01T12:49:36.309Z,9.97
2022-12-01T12:50:36.269Z,10.23
2022-12-01T12:51:36.240Z,10.66
2022-12-01T12:52:36.243Z,10.94
2022-12-01T12:53:36.217Z,10.97
2022-12-01T12:54:36.700Z,10.85
2022-12-01T12:55:36.219Z,10.78
2022-12-01T12:56:36.242Z,10.88
2022-12-01T12:57:36.179Z,10.96
2022-12-01T12:58:36.195Z,10.96
2022-12-01T12:59:36.156Z,10.82
2022-12-01T13:00:36.198Z,10.56
2022-12-01T13:01:36.221Z,10.42
2022-12-01T13:02:36.192Z,10.32
2022-12-01T13:03:36.114Z,10.14
2022-12-01T13:04:36.129Z,9.87
2022-12-01T13:05:36.134Z,9.75
2022-12-01T13:06:36.109Z,9.60
2022-12-01T13:07:36.136Z,9.46
2022-12-01T13:08:36.072Z,9.43
2022-12-01T13:09:36.073Z,9.42
2022-12-01T13:10:36.077Z,9.39
2022-12-01T13:11:36.024Z,9.36
2022-12-01T13:12:36.034Z,9.31
2022-12-01T13:13:36.040Z,9.31
2022-12-01T13:14:36.024Z,9.31
2022-12-01T13:15:36.076Z,9.33
2022-12-01T13:16:36.004Z,9.23
2022-12-01T13:17:35.969Z,9.21